Página principal
METAR-TAF:

METAR-TAF

Aeroportos :

Aeroporto Internacional de Winnipeg James Armstrong Richardson

Winnipeg, Manitoba, Canadá

latitude: 49-54N, longitude: 097-14W, altura: 239 m

Observação actual do tempo

O boletim foi feito há 1 hora e 8 minutos, às 05:00 UTC
Vento 7 kt de oeste
Temperatura -4°C
Humidade 80%
Pressão 1027 hPa
Visibilidade: 24.1 km
Poucas nuvensa uma altura de 3600 ft

METAR: CYWG 230500Z 28007KT 15SM FEW036 M04/M07 A3034 RMK SC2 SLP290

Hora: 01:08 (06:08 UTC)

Previsão

O boletim foi feito há 26 minutos, às 05:42 UTC
Previsão válida de 23 às 06 UTC a 24 às 06 UTC
Vento 6 kt de oeste
Visibilidade: 10 km
Nuvens dispersasa uma altura de 3000 ft
A partir de 23 às 1700 UTC
Vento 8 kt de sul
Visibilidade: 10 km
Céu limpo
Tornando-se
de 23 às 22 UTC a 23 às 24 UTC
Vento 8 kt de sudeste

TAF: CYWG 230542Z 2306/2406 28006KT P6SM SCT030 FM231700 17008KT P6SM SKC BECMG 2322/2324 14008KT RMK NXT FCST BY 231200Z

Observações e previsões do tempo de mais de 4000 aeroportos (mensagens METAR e TAF).

As estações disponíveis são os pontos amarelos e vermelhos sobre o mapa.

Mova o rato sobre o mapa para ver o nome da estação.

Depois clique no ponto para visualizar as observações e previsões meteorológicas.

Para alterar o mapa : clique nos botões verdes com uma cruz preta para aumentar o zoom; no botão verde com uma pitada de zoom; ou nas setas verdes para mapas adjacentes.


METAR-TAF: